Time;durP1;ratioP1;P1;durP2;ratioP2;P2;SDS_P1;SDS_P2;PMS_P1;PMS_P2;Temp;Humidity;BMP_temperature;BMP_pressure;BME280_temperature;BME280_humidity;BME280_pressure;Samples;Min_cycle;Max_cycle;Signal;HPM_P1;HPM_P2
2024/01/25 00:14:47;;;;;;;77.82;12.63;;;;;;;7.88;100.00;101098.88;4866724;29;20092;-93
2024/01/25 00:17:41;;;;;;;53.58;14.00;;;;;;;7.87;100.00;101097.22;4944076;28;20039;-92
2024/01/25 00:24:56;;;;;;;62.55;12.93;;;;;;;7.88;100.00;101081.31;5013409;28;20041;-96
2024/01/25 00:27:22;;;;;;;80.97;12.35;;;;;;;7.86;100.00;101082.34;4977096;28;20049;-96
2024/01/25 00:38:34;;;;;;;67.68;11.65;;;;;;;7.99;100.00;101043.69;4928378;28;20089;-96
2024/01/25 00:57:12;;;;;;;40.33;8.30;;;;;;;8.13;100.00;101007.56;4919326;29;20063;-94
2024/01/25 01:00:52;;;;;;;51.42;8.25;;;;;;;8.26;100.00;101010.97;4914854;29;20063;-94
2024/01/25 01:03:19;;;;;;;55.70;7.68;;;;;;;8.19;100.00;100986.03;4907700;29;20058;-93
2024/01/25 01:06:47;;;;;;;33.15;7.97;;;;;;;8.31;100.00;100992.19;4924465;29;20056;-94
2024/01/25 01:09:13;;;;;;;50.47;8.55;;;;;;;8.32;100.00;100991.22;4928853;28;20059;-92
2024/01/25 01:11:39;;;;;;;69.82;9.93;;;;;;;8.29;100.00;100981.78;4969048;28;20052;-94
2024/01/25 01:14:05;;;;;;;55.22;9.00;;;;;;;8.34;100.00;100981.44;5007603;28;20049;-93
2024/01/25 01:16:33;;;;;;;50.78;8.80;;;;;;;8.34;100.00;100976.16;5014520;28;20384;-93
2024/01/25 01:19:05;;;;;;;51.45;8.93;;;;;;;8.39;100.00;100967.91;5003251;28;20037;-94
2024/01/25 01:21:32;;;;;;;59.30;9.55;;;;;;;8.40;100.00;100961.69;5002625;28;20040;-94
2024/01/25 01:23:58;;;;;;;51.05;10.00;;;;;;;8.41;100.00;100951.03;5016291;28;20064;-93
2024/01/25 01:26:24;;;;;;;50.08;8.77;;;;;;;8.38;100.00;100940.72;5007314;28;20122;-94
2024/01/25 01:28:50;;;;;;;53.72;7.53;;;;;;;8.44;100.00;100926.25;5012959;28;20056;-93
2024/01/25 01:31:16;;;;;;;43.35;7.43;;;;;;;8.46;100.00;100929.59;5028439;28;20084;-94
2024/01/25 01:33:41;;;;;;;36.85;6.72;;;;;;;8.47;100.00;100923.38;5012226;28;20797;-94
2024/01/25 01:36:07;;;;;;;39.38;6.35;;;;;;;8.51;100.00;100913.44;4994633;28;20037;-93
2024/01/25 01:38:33;;;;;;;26.27;5.32;;;;;;;8.48;100.00;100908.41;5023763;28;20029;-93
2024/01/25 01:40:59;;;;;;;25.42;5.78;;;;;;;8.50;100.00;100888.03;5008375;28;20029;-93
2024/01/25 01:43:24;;;;;;;29.45;4.28;;;;;;;8.58;100.00;100898.00;4995778;28;20048;-93
2024/01/25 01:45:50;;;;;;;22.98;4.78;;;;;;;8.59;100.00;100892.63;4995489;28;20040;-94
2024/01/25 01:48:17;;;;;;;26.65;4.55;;;;;;;8.59;100.00;100882.09;4994035;28;20033;-94
2024/01/25 01:50:44;;;;;;;18.13;4.88;;;;;;;8.66;100.00;100891.16;4993426;28;20136;-94
2024/01/25 01:53:11;;;;;;;20.83;4.32;;;;;;;8.67;100.00;100879.69;5016150;28;20032;-94
2024/01/25 01:55:39;;;;;;;18.45;4.00;;;;;;;8.64;100.00;100871.19;4999728;28;20033;-94
2024/01/25 01:58:05;;;;;;;16.27;3.08;;;;;;;8.67;100.00;100873.56;4997422;28;20044;-92
2024/01/25 02:00:31;;;;;;;12.52;3.30;;;;;;;8.64;100.00;100847.47;5024090;28;20033;-93
2024/01/25 02:02:59;;;;;;;15.88;3.13;;;;;;;8.66;100.00;100856.09;5027692;28;20117;-93
2024/01/25 02:05:25;;;;;;;15.25;2.90;;;;;;;8.68;100.00;100852.38;5032814;28;20036;-94
2024/01/25 02:07:52;;;;;;;14.45;2.65;;;;;;;8.68;100.00;100838.34;5002624;28;20128;-93
2024/01/25 02:10:18;;;;;;;10.80;2.28;;;;;;;8.70;100.00;100836.44;5015273;28;20499;-94
2024/01/25 02:12:44;;;;;;;10.82;1.98;;;;;;;8.68;100.00;100825.16;5014703;28;20128;-93
2024/01/25 02:15:09;;;;;;;9.85;1.88;;;;;;;8.66;100.00;100825.28;4994587;28;20049;-92
2024/01/25 02:17:36;;;;;;;8.85;1.63;;;;;;;8.69;100.00;100817.13;5002040;28;20401;-93
2024/01/25 02:20:03;;;;;;;5.68;1.63;;;;;;;8.69;100.00;100805.78;4996881;28;20435;-94
2024/01/25 02:22:45;;;;;;;6.93;1.95;;;;;;;8.79;100.00;100811.97;4996376;28;20029;-93
2024/01/25 02:25:14;;;;;;;2.53;1.30;;;;;;;8.71;100.00;100795.97;5004682;28;20080;-93
2024/01/25 02:27:42;;;;;;;5.07;1.05;;;;;;;8.77;100.00;100797.25;5010260;28;20100;-93
2024/01/25 02:30:08;;;;;;;8.68;1.17;;;;;;;8.80;100.00;100797.84;5011688;28;20037;-93
2024/01/25 02:32:34;;;;;;;5.43;0.93;;;;;;;8.75;100.00;100801.81;4984228;28;20179;-94
2024/01/25 02:35:00;;;;;;;7.35;1.10;;;;;;;8.73;100.00;100791.38;5017367;28;20119;-94
2024/01/25 02:37:26;;;;;;;3.38;0.90;;;;;;;8.76;100.00;100798.22;4977694;28;20042;-92
2024/01/25 02:39:53;;;;;;;4.38;0.55;;;;;;;8.79;100.00;100811.97;5009066;28;20144;-96
2024/01/25 02:42:19;;;;;;;3.60;0.77;;;;;;;8.79;100.00;100796.16;4997712;28;20030;-96
2024/01/25 02:44:45;;;;;;;2.53;0.50;;;;;;;8.80;100.00;100800.50;5005080;28;20079;-96
2024/01/25 02:47:11;;;;;;;4.10;0.60;;;;;;;8.80;100.00;100773.28;5008478;28;20030;-96
2024/01/25 02:49:37;;;;;;;2.47;0.50;;;;;;;8.81;100.00;100785.50;5001967;28;20434;-94
2024/01/25 02:52:03;;;;;;;2.83;0.57;;;;;;;8.84;100.00;100787.88;5009953;28;20064;-96
2024/01/25 02:54:29;;;;;;;0.32;0.30;;;;;;;8.84;100.00;100779.97;5009902;28;20379;-93
2024/01/25 02:56:55;;;;;;;1.00;0.28;;;;;;;8.85;100.00;100757.94;4997071;28;20026;-93
2024/01/25 02:59:21;;;;;;;0.85;0.20;;;;;;;8.85;100.00;100763.22;5009327;28;20348;-93
2024/01/25 03:01:47;;;;;;;0.70;0.30;;;;;;;8.89;100.00;100753.22;4988775;28;20128;-93
2024/01/25 03:04:13;;;;;;;1.65;0.20;;;;;;;8.88;100.00;100746.28;4976846;28;20049;-93
2024/01/25 03:06:40;;;;;;;0.65;0.25;;;;;;;8.96;100.00;100735.97;5003516;28;20094;-96
2024/01/25 03:09:09;;;;;;;1.65;0.20;;;;;;;8.92;100.00;100723.97;5015153;28;20047;-96
2024/01/25 03:11:35;;;;;;;0.10;0.10;;;;;;;9.00;100.00;100744.47;5015289;28;20048;-94
2024/01/25 03:14:01;;;;;;;2.90;0.20;;;;;;;9.00;100.00;100739.19;5006912;28;20518;-94
2024/01/25 03:16:27;;;;;;;0.95;0.20;;;;;;;9.01;100.00;100732.94;4998356;28;20492;-94
2024/01/25 03:18:56;;;;;;;0.20;0.15;;;;;;;9.00;100.00;100729.47;5016319;28;20177;-92
2024/01/25 03:21:22;;;;;;;0.17;0.10;;;;;;;8.99;100.00;100740.97;5015225;28;20044;-94
2024/01/25 03:23:48;;;;;;;0.45;0.20;;;;;;;8.97;100.00;100728.88;4999404;28;20487;-95
2024/01/25 03:26:16;;;;;;;0.20;0.20;;;;;;;8.98;100.00;100730.56;5007186;28;20041;-94
2024/01/25 03:28:42;;;;;;;0.10;0.10;;;;;;;9.01;100.00;100723.25;5023464;28;20037;-93
2024/01/25 03:31:08;;;;;;;0.20;0.17;;;;;;;9.00;100.00;100712.81;5029686;28;20033;-95
2024/01/25 03:33:34;;;;;;;2.20;0.30;;;;;;;9.00;100.00;100707.56;5019956;28;20070;-95
2024/01/25 03:36:05;;;;;;;0.30;0.30;;;;;;;9.09;100.00;100721.75;5008621;28;20076;-93
2024/01/25 03:38:31;;;;;;;1.25;0.40;;;;;;;9.05;100.00;100708.84;5015292;28;20092;-92
2024/01/25 03:40:58;;;;;;;0.52;0.52;;;;;;;9.04;100.00;100690.50;4997470;28;20563;-94
2024/01/25 03:43:25;;;;;;;1.48;0.65;;;;;;;9.06;100.00;100684.13;5002204;28;20083;-93
2024/01/25 03:45:51;;;;;;;2.45;0.60;;;;;;;9.02;100.00;100674.81;5000257;28;20037;-93
2024/01/25 03:48:21;;;;;;;0.70;0.40;;;;;;;9.01;100.00;100652.06;5000203;28;20116;-93
2024/01/25 03:50:48;;;;;;;1.48;0.60;;;;;;;9.03;100.00;100650.09;5011575;28;20032;-94
2024/01/25 03:53:14;;;;;;;0.43;0.40;;;;;;;9.03;100.00;100649.28;5014944;28;20032;-93
2024/01/25 03:55:41;;;;;;;0.77;0.40;;;;;;;9.02;100.00;100632.63;5007552;28;20055;-96
2024/01/25 03:58:13;;;;;;;1.80;0.50;;;;;;;9.05;100.00;100642.91;5013679;28;20033;-96
2024/01/25 04:00:39;;;;;;;2.53;0.40;;;;;;;9.04;100.00;100640.41;5003656;28;20137;-93
2024/01/25 04:03:05;;;;;;;1.33;0.40;;;;;;;9.11;100.00;100644.19;5004124;28;20136;-94
2024/01/25 04:05:31;;;;;;;1.58;0.28;;;;;;;9.14;100.00;100636.00;5017333;28;20064;-94
2024/01/25 04:07:57;;;;;;;3.28;0.63;;;;;;;9.16;100.00;100628.81;5007753;28;20079;-92
2024/01/25 04:10:29;;;;;;;1.15;0.40;;;;;;;9.28;100.00;100628.75;5008001;28;20036;-96
2024/01/25 04:13:00;;;;;;;1.98;0.40;;;;;;;9.30;100.00;100624.19;5003987;28;20079;-96
2024/01/25 04:15:27;;;;;;;3.47;0.50;;;;;;;9.34;100.00;100624.72;5013121;28;20049;-95
2024/01/25 04:17:53;;;;;;;1.90;0.40;;;;;;;9.31;100.00;100620.56;4991594;28;20029;-93
2024/01/25 04:20:19;;;;;;;3.05;0.57;;;;;;;9.33;100.00;100613.38;4998598;28;20033;-92
2024/01/25 04:22:45;;;;;;;3.00;0.50;;;;;;;9.39;100.00;100617.25;5006678;28;20127;-94
2024/01/25 04:25:22;;;;;;;3.25;0.50;;;;;;;9.46;100.00;100607.84;5009224;28;20040;-96
2024/01/25 04:28:22;;;;;;;4.20;0.63;;;;;;;9.47;100.00;100606.88;5043575;28;20044;-96
2024/01/25 04:30:56;;;;;;;5.07;0.82;;;;;;;9.49;100.00;100607.56;5024344;28;20056;-94
2024/01/25 04:33:29;;;;;;;2.55;0.40;;;;;;;9.48;100.00;100599.78;4997049;28;20033;-94
2024/01/25 04:36:18;;;;;;;3.10;0.68;;;;;;;9.52;100.00;100586.19;4996721;28;20100;-95
2024/01/25 04:38:47;;;;;;;7.20;0.93;;;;;;;9.58;100.00;100592.75;5008806;28;20048;-96
2024/01/25 04:41:28;;;;;;;4.50;0.63;;;;;;;9.58;100.00;100584.00;4995824;28;20037;-94
2024/01/25 04:44:08;;;;;;;4.65;0.65;;;;;;;9.58;100.00;100587.47;5005759;28;20036;-95
2024/01/25 04:46:44;;;;;;;4.82;0.70;;;;;;;9.61;100.00;100586.38;4995374;28;20092;-94
2024/01/25 04:49:27;;;;;;;5.40;0.80;;;;;;;9.66;100.00;100589.44;5017517;28;20045;-94
2024/01/25 04:51:55;;;;;;;9.80;1.10;;;;;;;9.60;100.00;100585.56;5012814;28;20025;-95
2024/01/25 04:54:23;;;;;;;6.75;0.82;;;;;;;9.66;100.00;100586.81;4993651;28;20045;-93
2024/01/25 04:56:58;;;;;;;17.20;1.67;;;;;;;9.72;100.00;100580.97;5009394;28;20087;-94
2024/01/25 04:59:27;;;;;;;15.32;1.15;;;;;;;9.86;100.00;100581.59;4985892;28;20038;-95
2024/01/25 05:02:03;;;;;;;14.07;1.20;;;;;;;9.86;100.00;100592.97;5016204;28;20069;-93
2024/01/25 05:04:29;;;;;;;10.50;1.65;;;;;;;9.88;100.00;100575.19;5025231;28;20483;-95
2024/01/25 05:06:55;;;;;;;15.20;1.75;;;;;;;9.91;100.00;100567.00;5014600;28;20049;-94
2024/01/25 05:09:50;;;;;;;;;;;;;;;;;;;;;
2024/01/25 05:12:51;;;;;;;13.05;1.40;;;;;;;9.96;100.00;100569.22;5008032;28;20116;-95
2024/01/25 05:15:31;;;;;;;14.43;1.40;;;;;;;10.08;100.00;100567.25;4993494;28;20064;-94
2024/01/25 05:18:08;;;;;;;16.63;1.70;;;;;;;10.02;100.00;100557.25;4988752;28;20026;-96
2024/01/25 05:20:46;;;;;;;10.25;1.27;;;;;;;10.05;100.00;100547.25;4998255;28;20049;-95
2024/01/25 05:23:18;;;;;;;13.20;1.50;;;;;;;10.09;100.00;100560.19;4991222;28;20025;-94
2024/01/25 05:25:44;;;;;;;13.02;1.23;;;;;;;10.10;100.00;100562.69;4983052;28;20463;-94
2024/01/25 05:28:11;;;;;;;9.43;1.20;;;;;;;10.15;100.00;100551.72;4979829;28;20084;-94
2024/01/25 05:30:41;;;;;;;14.93;1.13;;;;;;;10.15;100.00;100549.06;4988044;28;20037;-94
2024/01/25 05:33:07;;;;;;;6.55;0.60;;;;;;;10.18;100.00;100559.34;5008827;28;20522;-93
2024/01/25 05:35:41;;;;;;;4.85;0.60;;;;;;;10.18;100.00;100556.72;5001760;28;20544;-96
2024/01/25 05:38:17;;;;;;;4.75;1.15;;;;;;;10.17;100.00;100549.78;4983670;28;20029;-95
2024/01/25 05:40:43;;;;;;;4.85;0.52;;;;;;;10.27;100.00;100562.97;4999011;28;20047;-94
2024/01/25 05:43:09;;;;;;;6.40;0.77;;;;;;;10.30;100.00;100557.41;4987525;28;20037;-93
2024/01/25 05:45:37;;;;;;;4.82;0.50;;;;;;;10.30;100.00;100547.66;4988802;28;20045;-95
2024/01/25 05:48:03;;;;;;;3.70;0.40;;;;;;;10.29;100.00;100540.72;4982320;28;20100;-94
2024/01/25 05:50:29;;;;;;;3.00;0.45;;;;;;;10.27;100.00;100526.00;4999340;28;20030;-96
2024/01/25 05:52:55;;;;;;;4.03;0.30;;;;;;;10.31;100.00;100537.94;5013383;28;20404;-95
2024/01/25 05:55:22;;;;;;;6.68;0.47;;;;;;;10.33;100.00;100514.88;5010860;28;20038;-94
2024/01/25 05:57:48;;;;;;;7.45;1.38;;;;;;;10.36;100.00;100532.22;4983192;28;20034;-94
2024/01/25 06:00:17;;;;;;;4.28;0.38;;;;;;;10.34;100.00;100527.09;4993221;28;20191;-94
2024/01/25 06:02:43;;;;;;;3.88;0.57;;;;;;;10.38;100.00;100540.88;4975839;28;20088;-94
2024/01/25 06:05:09;;;;;;;2.42;0.10;;;;;;;10.35;100.00;100527.94;4993320;28;20029;-95
2024/01/25 06:07:35;;;;;;;3.22;0.30;;;;;;;10.34;100.00;100516.53;4981379;28;21165;-93
2024/01/25 06:10:04;;;;;;;4.20;0.20;;;;;;;10.37;100.00;100531.25;4981674;28;20093;-93
2024/01/25 06:12:30;;;;;;;1.75;0.10;;;;;;;10.40;100.00;100525.72;4986686;28;20040;-95
2024/01/25 06:14:59;;;;;;;3.38;0.32;;;;;;;10.44;100.00;100521.81;5002062;28;20049;-94
2024/01/25 06:17:28;;;;;;;2.17;0.22;;;;;;;10.41;100.00;100522.09;5000784;28;20053;-95
2024/01/25 06:19:57;;;;;;;2.50;0.35;;;;;;;10.45;100.00;100526.09;5013007;28;20044;-94
2024/01/25 06:22:28;;;;;;;1.48;0.20;;;;;;;10.49;100.00;100518.75;5015155;28;20127;-95
2024/01/25 06:24:54;;;;;;;3.47;0.20;;;;;;;10.46;100.00;100525.19;5033819;28;20624;-94
2024/01/25 06:27:20;;;;;;;3.78;0.30;;;;;;;10.52;100.00;100521.13;4995301;28;20044;-94
2024/01/25 06:32:51;;;;;;;1.80;0.40;;;;;;;10.52;100.00;100515.84;4957993;28;20142;-96
2024/01/25 06:35:18;;;;;;;3.92;0.57;;;;;;;10.50;100.00;100502.75;4990390;28;20135;-93
2024/01/25 06:37:47;;;;;;;5.68;0.43;;;;;;;10.54;100.00;100501.50;4997343;28;20495;-93
2024/01/25 06:40:26;;;;;;;3.45;0.45;;;;;;;10.52;100.00;100505.25;4993637;28;20038;-95
2024/01/25 06:42:58;;;;;;;5.47;0.60;;;;;;;10.47;100.00;100516.25;4996230;28;20460;-95
2024/01/25 06:45:24;;;;;;;3.03;0.30;;;;;;;10.49;100.00;100514.31;4992257;28;20559;-94
2024/01/25 06:47:53;;;;;;;4.03;0.15;;;;;;;10.49;100.00;100500.25;5000328;28;20124;-93
2024/01/25 06:50:19;;;;;;;1.95;0.52;;;;;;;10.55;100.00;100497.06;5014561;28;20025;-92
2024/01/25 06:52:45;;;;;;;3.92;0.43;;;;;;;10.56;100.00;100504.00;5016607;28;20406;-93
2024/01/25 06:55:15;;;;;;;2.80;0.52;;;;;;;10.58;100.00;100501.22;5014035;28;20491;-95
2024/01/25 06:57:40;;;;;;;2.92;0.38;;;;;;;10.53;100.00;100491.06;5006301;28;20029;-93
2024/01/25 07:00:12;;;;;;;1.02;0.20;;;;;;;10.60;100.00;100504.56;5002904;28;20447;-93
2024/01/25 07:02:38;;;;;;;1.05;0.17;;;;;;;10.54;100.00;100496.22;4999421;28;20048;-94
2024/01/25 07:05:08;;;;;;;5.10;0.20;;;;;;;10.60;100.00;100501.91;5008348;28;20145;-94
2024/01/25 07:07:38;;;;;;;2.65;0.20;;;;;;;10.59;100.00;100492.31;5014912;28;20387;-93
2024/01/25 07:10:07;;;;;;;0.73;0.20;;;;;;;10.62;100.00;100477.00;4992591;28;20033;-94
2024/01/25 07:12:33;;;;;;;2.38;0.30;;;;;;;10.64;100.00;100501.47;5011988;28;20026;-93
2024/01/25 07:15:02;;;;;;;0.93;0.20;;;;;;;10.60;100.00;100497.47;5005918;28;20084;-96
2024/01/25 07:17:32;;;;;;;1.45;0.17;;;;;;;10.65;100.00;100499.69;4997675;28;20037;-96
2024/01/25 07:19:59;;;;;;;0.98;0.20;;;;;;;10.64;100.00;100503.28;4988267;28;20036;-94
2024/01/25 07:22:30;;;;;;;1.63;0.20;;;;;;;10.66;100.00;100486.31;4994101;28;20514;-95
2024/01/25 07:25:00;;;;;;;2.65;0.30;;;;;;;10.65;100.00;100491.75;4990770;28;20045;-94
2024/01/25 07:27:32;;;;;;;1.45;0.25;;;;;;;10.66;100.00;100493.41;4995364;28;20049;-94
2024/01/25 07:29:59;;;;;;;2.28;0.15;;;;;;;10.64;100.00;100485.63;4998423;28;20037;-96
2024/01/25 07:32:25;;;;;;;1.83;0.20;;;;;;;10.64;100.00;100472.41;5004430;28;20052;-96
2024/01/25 07:34:53;;;;;;;2.55;0.25;;;;;;;10.67;100.00;100479.22;4989494;28;20087;-96
2024/01/25 07:37:25;;;;;;;1.98;0.40;;;;;;;10.63;100.00;100473.38;4993366;28;20125;-94
2024/01/25 07:40:00;;;;;;;3.42;0.40;;;;;;;10.65;100.00;100471.41;5006518;28;20036;-94
2024/01/25 07:42:26;;;;;;;1.02;0.30;;;;;;;10.64;100.00;100464.47;4975543;28;20037;-94
2024/01/25 07:44:52;;;;;;;1.13;0.20;;;;;;;10.61;100.00;100477.97;4990303;28;20083;-94
2024/01/25 07:47:21;;;;;;;2.33;0.20;;;;;;;10.61;100.00;100469.19;4991001;28;20033;-94
2024/01/25 07:49:57;;;;;;;1.42;0.50;;;;;;;10.66;100.00;100473.09;4980489;28;20128;-96
2024/01/25 07:52:26;;;;;;;3.95;0.30;;;;;;;10.62;100.00;100462.97;5013391;28;20034;-96
2024/01/25 07:54:55;;;;;;;1.17;0.30;;;;;;;10.70;100.00;100465.72;4995962;28;20026;-95
2024/01/25 07:57:21;;;;;;;5.03;0.50;;;;;;;10.66;100.00;100459.88;4993613;28;20086;-94
2024/01/25 07:59:47;;;;;;;3.38;0.40;;;;;;;10.67;100.00;100463.38;4992669;28;20071;-94
2024/01/25 08:02:13;;;;;;;4.43;0.47;;;;;;;10.64;100.00;100468.91;4974900;28;20030;-95
2024/01/25 08:04:39;;;;;;;3.38;0.40;;;;;;;10.66;100.00;100464.31;4982055;28;20491;-94
2024/01/25 08:07:04;;;;;;;6.30;0.80;;;;;;;10.69;100.00;100461.38;4977684;28;20127;-95
2024/01/25 08:09:31;;;;;;;3.88;0.70;;;;;;;10.73;100.00;100460.16;4980955;28;20037;-96
2024/01/25 08:11:57;;;;;;;3.50;0.32;;;;;;;10.72;100.00;100458.44;4988395;28;20527;-94
2024/01/25 08:14:24;;;;;;;4.55;1.13;;;;;;;10.67;100.00;100453.59;4973297;28;20326;-94
2024/01/25 08:16:55;;;;;;;3.30;0.50;;;;;;;10.71;100.00;100461.25;4977977;28;20029;-94
2024/01/25 08:19:20;;;;;;;3.90;0.50;;;;;;;10.75;100.00;100454.72;4977205;28;20098;-95
2024/01/25 08:21:46;;;;;;;2.78;0.35;;;;;;;10.72;100.00;100457.66;4992675;28;20037;-94
2024/01/25 08:24:12;;;;;;;3.78;0.50;;;;;;;10.70;100.00;100449.84;4981554;28;20044;-94
2024/01/25 08:26:38;;;;;;;4.72;0.50;;;;;;;10.70;100.00;100447.22;4981033;28;20078;-96
2024/01/25 08:29:54;;;;;;;4.40;0.60;;;;;;;10.69;100.00;100432.31;4980735;28;20064;-94
2024/01/25 08:32:41;;;;;;;5.60;0.40;;;;;;;10.61;100.00;100443.59;5006396;28;20043;-96
2024/01/25 08:35:07;;;;;;;2.35;0.40;;;;;;;10.66;100.00;100443.19;4981784;28;20041;-96
2024/01/25 08:37:33;;;;;;;6.35;0.65;;;;;;;10.73;100.00;100432.88;4993397;28;20049;-95
2024/01/25 08:39:59;;;;;;;3.55;0.50;;;;;;;10.66;100.00;100436.09;4992448;28;20038;-93
2024/01/25 08:42:25;;;;;;;5.45;0.50;;;;;;;10.62;100.00;100437.34;4981680;28;20033;-95
2024/01/25 08:44:51;;;;;;;7.90;0.55;;;;;;;10.66;100.00;100443.19;4977134;28;20053;-94
2024/01/25 08:47:18;;;;;;;5.30;0.60;;;;;;;10.69;100.00;100437.59;4977735;28;20048;-95
2024/01/25 08:49:44;;;;;;;2.85;0.47;;;;;;;10.65;100.00;100433.59;4999495;28;20040;-95
2024/01/25 08:52:10;;;;;;;2.50;0.57;;;;;;;10.69;100.00;100448.16;4969158;28;20038;-93
2024/01/25 08:54:37;;;;;;;2.72;0.50;;;;;;;10.68;100.00;100435.94;4959389;28;20049;-94
2024/01/25 08:57:04;;;;;;;2.13;0.38;;;;;;;10.77;100.00;100440.34;4993227;28;20039;-93
2024/01/25 08:59:32;;;;;;;3.38;0.50;;;;;;;10.77;100.00;100458.88;4991704;28;20034;-96
2024/01/25 09:01:58;;;;;;;2.53;0.47;;;;;;;10.80;100.00;100452.44;4996374;28;20478;-95
2024/01/25 09:04:24;;;;;;;3.03;0.73;;;;;;;10.79;100.00;100451.63;4981354;28;20038;-94
2024/01/25 09:06:50;;;;;;;4.63;0.43;;;;;;;10.82;100.00;100447.00;4975595;28;20040;-94
2024/01/25 09:09:16;;;;;;;5.93;0.45;;;;;;;10.85;100.00;100455.50;4995549;28;20037;-95
2024/01/25 09:11:42;;;;;;;4.32;0.52;;;;;;;10.88;100.00;100449.91;4980771;28;20053;-94
2024/01/25 09:14:08;;;;;;;2.30;0.60;;;;;;;10.86;100.00;100443.09;5002305;28;20049;-95
2024/01/25 09:16:37;;;;;;;4.57;0.70;;;;;;;10.95;100.00;100446.69;4992064;28;20406;-93
2024/01/25 09:19:03;;;;;;;1.95;0.32;;;;;;;10.95;100.00;100431.66;5002908;28;20502;-95
2024/01/25 09:21:29;;;;;;;4.68;0.60;;;;;;;10.96;100.00;100424.56;4996870;28;20502;-94
2024/01/25 09:23:54;;;;;;;3.53;0.50;;;;;;;11.01;100.00;100424.94;5016348;28;20045;-95
2024/01/25 09:26:20;;;;;;;3.58;0.57;;;;;;;11.00;100.00;100426.75;4997537;28;20040;-96
2024/01/25 09:28:46;;;;;;;4.45;0.40;;;;;;;11.01;100.00;100424.94;4997510;28;20042;-96
2024/01/25 09:31:13;;;;;;;2.95;0.40;;;;;;;11.07;100.00;100420.88;5018127;28;20171;-96
2024/01/25 09:33:41;;;;;;;4.38;0.47;;;;;;;11.08;100.00;100410.16;5001412;28;20133;-95
2024/01/25 09:36:06;;;;;;;4.53;0.73;;;;;;;11.06;100.00;100421.84;4990698;28;20038;-96
2024/01/25 09:38:33;;;;;;;4.63;0.50;;;;;;;11.08;100.00;100415.44;5043789;28;20045;-95
2024/01/25 09:41:00;;;;;;;3.80;0.70;;;;;;;11.12;100.00;100421.25;5003987;28;20567;-96
2024/01/25 09:43:29;;;;;;;3.88;0.98;;;;;;;11.11;100.00;100401.91;5021585;28;20042;-95
2024/01/25 09:45:55;;;;;;;2.95;0.63;;;;;;;11.14;100.00;100406.06;5002606;28;20043;-96
2024/01/25 09:48:22;;;;;;;3.05;0.40;;;;;;;11.15;100.00;100394.50;5007440;28;20104;-96
2024/01/25 09:50:50;;;;;;;4.38;0.52;;;;;;;11.23;100.00;100399.03;5003287;28;20065;-96
2024/01/25 09:53:24;;;;;;;4.68;0.52;;;;;;;11.23;100.00;100399.88;5007506;28;20042;-96
2024/01/25 09:56:07;;;;;;;5.05;1.20;;;;;;;11.27;100.00;100400.41;5008516;28;20175;-96
2024/01/25 09:58:41;;;;;;;2.25;0.45;;;;;;;11.26;100.00;100396.94;5004625;28;20034;-94
2024/01/25 10:01:10;;;;;;;2.95;0.50;;;;;;;11.29;100.00;100393.16;5032106;28;20471;-96
2024/01/25 10:03:37;;;;;;;6.47;0.50;;;;;;;11.35;100.00;100394.38;5000159;28;20042;-95
2024/01/25 10:06:05;;;;;;;3.58;0.68;;;;;;;11.33;100.00;100393.69;5019732;28;20052;-93
2024/01/25 10:08:31;;;;;;;0.88;0.40;;;;;;;11.35;100.00;100386.44;5000756;28;20033;-95
2024/01/25 10:10:57;;;;;;;4.20;0.90;;;;;;;11.36;100.00;100390.72;5002055;28;20041;-94
2024/01/25 10:13:23;;;;;;;4.80;0.70;;;;;;;11.35;100.00;100381.97;4998849;28;20033;-94
2024/01/25 10:15:49;;;;;;;2.90;0.47;;;;;;;11.42;100.00;100387.47;5012702;28;20037;-95
2024/01/25 10:18:15;;;;;;;1.52;0.50;;;;;;;11.42;100.00;100387.47;5008846;28;20225;-95
2024/01/25 10:20:44;;;;;;;3.83;0.60;;;;;;;11.43;100.00;100383.03;5034839;28;20127;-95
2024/01/25 10:23:11;;;;;;;6.15;0.60;;;;;;;11.43;100.00;100386.50;5007552;28;20052;-95
2024/01/25 10:25:37;;;;;;;1.63;0.60;;;;;;;11.45;100.00;100394.28;5005019;28;20033;-95
2024/01/25 10:28:07;;;;;;;3.17;0.68;;;;;;;11.48;100.00;100375.47;5031447;28;20029;-95
2024/01/25 10:30:36;;;;;;;2.42;0.55;;;;;;;11.48;100.00;100381.56;5054103;28;20146;-96
2024/01/25 10:33:04;;;;;;;2.80;0.55;;;;;;;11.47;100.00;100371.97;4998997;28;20843;-95
2024/01/25 10:35:31;;;;;;;4.13;0.50;;;;;;;11.53;100.00;100386.44;5007052;28;20127;-95
2024/01/25 10:37:58;;;;;;;1.02;0.43;;;;;;;11.51;100.00;100372.50;5018247;28;20533;-96
2024/01/25 10:40:24;;;;;;;1.38;0.57;;;;;;;11.58;100.00;100383.34;4997138;28;20500;-95
2024/01/25 10:42:50;;;;;;;0.73;0.28;;;;;;;11.57;100.00;100379.84;5032314;28;20025;-95
2024/01/25 10:45:16;;;;;;;1.10;0.20;;;;;;;11.54;100.00;100370.41;5034240;28;20063;-96
2024/01/25 10:47:44;;;;;;;0.63;0.43;;;;;;;11.63;100.00;100371.28;5031098;28;20102;-96
2024/01/25 10:50:13;;;;;;;1.33;0.40;;;;;;;11.70;100.00;100368.03;4995050;28;20096;-95
2024/01/25 10:52:41;;;;;;;0.85;0.30;;;;;;;11.72;100.00;100369.53;5018610;28;20052;-95
2024/01/25 10:55:08;;;;;;;1.05;0.20;;;;;;;11.68;100.00;100356.75;5002936;28;20128;-94
2024/01/25 10:57:39;;;;;;;2.05;0.30;;;;;;;11.77;100.00;100372.56;5001505;28;20048;-96
2024/01/25 11:00:14;;;;;;;1.23;0.22;;;;;;;11.74;100.00;100345.53;5001862;28;20041;-95
2024/01/25 11:02:41;;;;;;;1.33;0.45;;;;;;;11.73;100.00;100357.13;5006233;28;20419;-94
2024/01/25 11:05:14;;;;;;;0.95;0.20;;;;;;;11.80;100.00;100347.59;4994546;28;20091;-94
2024/01/25 11:07:50;;;;;;;0.73;0.20;;;;;;;11.81;100.00;100366.94;5037607;28;20045;-95
2024/01/25 11:10:19;;;;;;;0.82;0.20;;;;;;;11.87;100.00;100353.09;5015640;28;20028;-95
2024/01/25 11:13:03;;;;;;;1.52;0.38;;;;;;;11.93;100.00;100349.81;4994603;28;20037;-95
2024/01/25 11:15:36;;;;;;;0.43;0.20;;;;;;;11.93;100.00;100363.06;5007440;28;20041;-95
2024/01/25 11:18:06;;;;;;;1.48;0.22;;;;;;;11.95;100.00;100354.94;5003071;28;20047;-95
2024/01/25 11:20:33;;;;;;;1.63;0.40;;;;;;;11.93;100.00;100347.16;5017051;28;20490;-94
2024/01/25 11:23:04;;;;;;;1.73;0.30;;;;;;;11.96;100.00;100351.34;5013977;28;20042;-95
2024/01/25 11:25:32;;;;;;;1.83;0.35;;;;;;;11.94;100.00;100348.84;5010534;28;20108;-94
2024/01/25 11:27:59;;;;;;;1.38;0.32;;;;;;;11.95;100.00;100354.94;5014671;28;20487;-96
2024/01/25 11:30:26;;;;;;;1.48;0.20;;;;;;;11.97;100.00;100340.59;5018332;28;20039;-95
2024/01/25 11:32:52;;;;;;;1.77;0.25;;;;;;;11.94;100.00;100337.41;4994103;28;20034;-95
2024/01/25 11:35:18;;;;;;;0.43;0.22;;;;;;;11.91;100.00;100349.16;5010304;28;20484;-96
2024/01/25 11:37:48;;;;;;;1.08;0.25;;;;;;;11.95;100.00;100344.34;4995054;28;20045;-95
2024/01/25 11:40:15;;;;;;;1.17;0.35;;;;;;;11.94;100.00;100350.66;4987734;28;20034;-95
2024/01/25 11:42:43;;;;;;;1.27;0.15;;;;;;;11.93;100.00;100344.50;5026982;28;20509;-94
2024/01/25 11:45:12;;;;;;;1.88;0.20;;;;;;;11.94;100.00;100338.25;5011434;28;20033;-95
2024/01/25 11:47:39;;;;;;;1.42;0.30;;;;;;;11.94;100.00;100327.66;5000001;28;20203;-93
2024/01/25 11:50:06;;;;;;;1.13;0.10;;;;;;;11.93;100.00;100311.91;5000329;28;20040;-94
2024/01/25 11:52:33;;;;;;;0.88;0.20;;;;;;;11.88;100.00;100313.19;5011125;28;20030;-94
2024/01/25 11:55:09;;;;;;;0.80;0.30;;;;;;;11.91;100.00;100317.38;5008957;28;20040;-95
2024/01/25 11:57:43;;;;;;;1.77;0.73;;;;;;;11.94;100.00;100295.88;4989986;28;20040;-96
2024/01/25 12:00:12;;;;;;;3.70;0.60;;;;;;;11.95;100.00;100296.69;5010845;28;20079;-94
2024/01/25 12:02:39;;;;;;;1.08;0.50;;;;;;;11.98;100.00;100285.78;4994476;28;20044;-96
2024/01/25 12:05:05;;;;;;;2.60;0.43;;;;;;;12.01;100.00;100288.94;5015679;28;20491;-94
2024/01/25 12:07:32;;;;;;;0.95;0.20;;;;;;;12.07;100.00;100286.66;5022628;28;20407;-96
2024/01/25 12:09:59;;;;;;;2.03;0.20;;;;;;;12.10;100.00;100284.56;5008624;28;20029;-95
2024/01/25 12:12:25;;;;;;;0.68;0.20;;;;;;;12.18;100.00;100293.53;5008402;28;20455;-96
2024/01/25 12:14:52;;;;;;;0.40;0.20;;;;;;;12.19;100.00;100276.63;4997861;28;20067;-95